Mary Ann Moran — WDF4572 — position and weather

sailwx.info

Track history (hours):
 
Tides and Currents Weather Stations Pressure Air Temp Water Temp Dewpoint Dewpoint Depression Visibility Wind Speed Wind Dir Waves Ship Positions

Mary Ann Moran

Owner: MORAN TOWING CORPORATION, NEW CANAAN, CT. More information available from US FCC via Universal Licensing System and Coast Guard Vessel Documentation Center.

Last reported at 2015-Jul-25 23:23 UTC. Time now 2015-Aug-02 14:23 UTC.
Position N 27°41' W 082°35'.

Length 170 m; draft 5 m.

Type: Tow > 200 m length. MMSI: 367453420.

Date/timePositionNaut miles runAvg speedWind from/ knotsBaromVisibWave heightAir tempDewpointWater temp
2015-Jul-25 23:23N 27°41' W 082°35'7 8.6
2015-Jul-25 22:33N 27°47' W 082°31'8 8.1
2015-Jul-25 21:33N 27°55' W 082°26'2 2.4
2015-Jul-25 20:34N 27°57' W 082°27'0 0.0
2015-Jul-25 19:33N 27°57' W 082°27'0 0.0
2015-Jul-25 18:33N 27°57' W 082°27'0 0.0
2015-Jul-25 17:33N 27°57' W 082°27'0 0.0
2015-Jul-25 16:33N 27°57' W 082°27'0 0.0
2015-Jul-25 15:33N 27°57' W 082°27'0 0.0
2015-Jul-25 14:33N 27°57' W 082°27'0 0.0
2015-Jul-25 13:33N 27°57' W 082°27'0 0.0
2015-Jul-25 12:33N 27°57' W 082°27'0 0.0
2015-Jul-25 11:34N 27°57' W 082°27'0 0.0
2015-Jul-25 10:33N 27°57' W 082°27'0 0.0
2015-Jul-25 09:33N 27°57' W 082°27'0 0.0
2015-Jul-25 08:33N 27°57' W 082°27'0 0.0
2015-Jul-25 07:33N 27°57' W 082°27'0 0.0
2015-Jul-25 06:33N 27°57' W 082°27'0 0.0
2015-Jul-25 05:33N 27°57' W 082°27'0 0.0
2015-Jul-25 04:33N 27°57' W 082°27'0 0.0
2015-Jul-25 03:33N 27°57' W 082°27'0 0.0
2015-Jul-25 02:33N 27°57' W 082°27'0 0.0
2015-Jul-25 01:33N 27°57' W 082°27'0 0.0
2015-Jul-25 00:33N 27°57' W 082°27'0 0.0
2015-Jul-24 23:33N 27°57' W 082°27'0 0.0
2015-Jul-24 22:33N 27°57' W 082°27'0 0.0
2015-Jul-24 21:33N 27°57' W 082°27'0 0.0
2015-Jul-24 20:33N 27°57' W 082°27'0 0.0
2015-Jul-24 19:33N 27°57' W 082°27'0 0.0
2015-Jul-24 18:33N 27°57' W 082°27'0 0.0
2015-Jul-24 17:33N 27°57' W 082°27'0 0.0
2015-Jul-24 16:33N 27°57' W 082°27'0 0.0
2015-Jul-24 15:34N 27°57' W 082°27'0 0.0
2015-Jul-24 14:34N 27°57' W 082°27'0 0.0
2015-Jul-24 13:33N 27°57' W 082°27'0 0.0
2015-Jul-24 12:34N 27°57' W 082°27'0 0.0
2015-Jul-24 11:33N 27°57' W 082°27'0 0.0
2015-Jul-24 10:33N 27°57' W 082°27'0 0.0
2015-Jul-24 09:33N 27°57' W 082°27'0 0.0
2015-Jul-24 08:33N 27°57' W 082°27'0 0.0
2015-Jul-24 07:33N 27°57' W 082°27'0 0.0
2015-Jul-24 06:33N 27°57' W 082°27'0 0.0
2015-Jul-24 05:33N 27°57' W 082°27'0 0.0
2015-Jul-24 04:33N 27°57' W 082°27'0 0.0
2015-Jul-24 03:33N 27°57' W 082°27'0 0.0
2015-Jul-24 02:33N 27°57' W 082°27'0 0.0
2015-Jul-24 01:34N 27°57' W 082°27'0 0.0
2015-Jul-24 00:34N 27°57' W 082°27'0 0.0
2015-Jul-23 23:33N 27°57' W 082°27'0 0.0
2015-Jul-23 22:33N 27°57' W 082°27'0 0.0
2015-Jul-23 21:33N 27°57' W 082°27'0 0.0
2015-Jul-23 20:33N 27°57' W 082°27'0 0.0
2015-Jul-23 19:33N 27°57' W 082°27'0 0.0
2015-Jul-23 18:33N 27°57' W 082°27'0 0.0
2015-Jul-23 17:33N 27°57' W 082°27'0 0.0
2015-Jul-23 16:33N 27°57' W 082°27'0 0.0
2015-Jul-23 15:33N 27°57' W 082°27'0 0.0
2015-Jul-23 14:34N 27°57' W 082°27'0 0.0
2015-Jul-23 13:33N 27°57' W 082°27'0 0.0
2015-Jul-23 12:34N 27°57' W 082°27'0 0.0
2015-Jul-23 11:34N 27°57' W 082°27'0 0.0
2015-Jul-23 10:33N 27°57' W 082°27'0 0.0
2015-Jul-23 09:34N 27°57' W 082°27'0 0.0
2015-Jul-23 08:34N 27°57' W 082°27'0 0.0
2015-Jul-23 07:33N 27°57' W 082°27'0 0.0
2015-Jul-23 06:33N 27°57' W 082°27'0 0.0
2015-Jul-23 05:33N 27°57' W 082°27'0 0.0
2015-Jul-23 04:33N 27°57' W 082°27'0 0.0
2015-Jul-23 03:33N 27°57' W 082°27'0 0.0
2015-Jul-23 02:33N 27°57' W 082°27'0 0.0
2015-Jul-23 01:33N 27°57' W 082°27'1 0.9
2015-Jul-23 00:33N 27°56' W 082°27'7 6.5
2015-Jul-22 23:33N 27°50' W 082°27'9 8.5
2015-Jul-22 22:33N 27°43' W 082°33'  
Track history (hours):
 
Tides and Currents Weather Stations Pressure Air Temp Water Temp Dewpoint Dewpoint Depression Visibility Wind Speed Wind Dir Waves Ship Positions

Mary Ann Moran

Owner: MORAN TOWING CORPORATION, NEW CANAAN, CT. More information available from US FCC via Universal Licensing System and Coast Guard Vessel Documentation Center.

Last reported at 2015-Jul-25 23:23 UTC. Time now 2015-Aug-02 14:23 UTC.
Position N 27°41' W 082°35'.

Length 170 m; draft 5 m.

Type: Tow > 200 m length. MMSI: 367453420.

Date/timePositionNaut miles runAvg speedWind from/ knotsBaromVisibWave heightAir tempDewpointWater temp
2015-Jul-25 23:23N 27°41' W 082°35'7 8.6
2015-Jul-25 22:33N 27°47' W 082°31'8 8.1
2015-Jul-25 21:33N 27°55' W 082°26'2 2.4
2015-Jul-25 20:34N 27°57' W 082°27'0 0.0
2015-Jul-25 19:33N 27°57' W 082°27'0 0.0
2015-Jul-25 18:33N 27°57' W 082°27'0 0.0
2015-Jul-25 17:33N 27°57' W 082°27'0 0.0
2015-Jul-25 16:33N 27°57' W 082°27'0 0.0
2015-Jul-25 15:33N 27°57' W 082°27'0 0.0
2015-Jul-25 14:33N 27°57' W 082°27'0 0.0
2015-Jul-25 13:33N 27°57' W 082°27'0 0.0
2015-Jul-25 12:33N 27°57' W 082°27'0 0.0
2015-Jul-25 11:34N 27°57' W 082°27'0 0.0
2015-Jul-25 10:33N 27°57' W 082°27'0 0.0
2015-Jul-25 09:33N 27°57' W 082°27'0 0.0
2015-Jul-25 08:33N 27°57' W 082°27'0 0.0
2015-Jul-25 07:33N 27°57' W 082°27'0 0.0
2015-Jul-25 06:33N 27°57' W 082°27'0 0.0
2015-Jul-25 05:33N 27°57' W 082°27'0 0.0
2015-Jul-25 04:33N 27°57' W 082°27'0 0.0
2015-Jul-25 03:33N 27°57' W 082°27'0 0.0
2015-Jul-25 02:33N 27°57' W 082°27'0 0.0
2015-Jul-25 01:33N 27°57' W 082°27'0 0.0
2015-Jul-25 00:33N 27°57' W 082°27'0 0.0
2015-Jul-24 23:33N 27°57' W 082°27'0 0.0
2015-Jul-24 22:33N 27°57' W 082°27'0 0.0
2015-Jul-24 21:33N 27°57' W 082°27'0 0.0
2015-Jul-24 20:33N 27°57' W 082°27'0 0.0
2015-Jul-24 19:33N 27°57' W 082°27'0 0.0
2015-Jul-24 18:33N 27°57' W 082°27'0 0.0
2015-Jul-24 17:33N 27°57' W 082°27'0 0.0
2015-Jul-24 16:33N 27°57' W 082°27'0 0.0
2015-Jul-24 15:34N 27°57' W 082°27'0 0.0
2015-Jul-24 14:34N 27°57' W 082°27'0 0.0
2015-Jul-24 13:33N 27°57' W 082°27'0 0.0
2015-Jul-24 12:34N 27°57' W 082°27'0 0.0
2015-Jul-24 11:33N 27°57' W 082°27'0 0.0
2015-Jul-24 10:33N 27°57' W 082°27'0 0.0
2015-Jul-24 09:33N 27°57' W 082°27'0 0.0
2015-Jul-24 08:33N 27°57' W 082°27'0 0.0
2015-Jul-24 07:33N 27°57' W 082°27'0 0.0
2015-Jul-24 06:33N 27°57' W 082°27'0 0.0
2015-Jul-24 05:33N 27°57' W 082°27'0 0.0
2015-Jul-24 04:33N 27°57' W 082°27'0 0.0
2015-Jul-24 03:33N 27°57' W 082°27'0 0.0
2015-Jul-24 02:33N 27°57' W 082°27'0 0.0
2015-Jul-24 01:34N 27°57' W 082°27'0 0.0
2015-Jul-24 00:34N 27°57' W 082°27'0 0.0
2015-Jul-23 23:33N 27°57' W 082°27'0 0.0
2015-Jul-23 22:33N 27°57' W 082°27'0 0.0
2015-Jul-23 21:33N 27°57' W 082°27'0 0.0
2015-Jul-23 20:33N 27°57' W 082°27'0 0.0
2015-Jul-23 19:33N 27°57' W 082°27'0 0.0
2015-Jul-23 18:33N 27°57' W 082°27'0 0.0
2015-Jul-23 17:33N 27°57' W 082°27'0 0.0
2015-Jul-23 16:33N 27°57' W 082°27'0 0.0
2015-Jul-23 15:33N 27°57' W 082°27'0 0.0
2015-Jul-23 14:34N 27°57' W 082°27'0 0.0
2015-Jul-23 13:33N 27°57' W 082°27'0 0.0
2015-Jul-23 12:34N 27°57' W 082°27'0 0.0
2015-Jul-23 11:34N 27°57' W 082°27'0 0.0
2015-Jul-23 10:33N 27°57' W 082°27'0 0.0
2015-Jul-23 09:34N 27°57' W 082°27'0 0.0
2015-Jul-23 08:34N 27°57' W 082°27'0 0.0
2015-Jul-23 07:33N 27°57' W 082°27'0 0.0
2015-Jul-23 06:33N 27°57' W 082°27'0 0.0
2015-Jul-23 05:33N 27°57' W 082°27'0 0.0
2015-Jul-23 04:33N 27°57' W 082°27'0 0.0
2015-Jul-23 03:33N 27°57' W 082°27'0 0.0
2015-Jul-23 02:33N 27°57' W 082°27'0 0.0
2015-Jul-23 01:33N 27°57' W 082°27'1 0.9
2015-Jul-23 00:33N 27°56' W 082°27'7 6.5
2015-Jul-22 23:33N 27°50' W 082°27'9 8.5
2015-Jul-22 22:33N 27°43' W 082°33'  

Dump ship's entire track history